createdAt,value
2017-08-15T00:01:04.638Z,0
2017-08-15T00:02:15.085Z,0
2017-08-15T00:03:25.559Z,0
2017-08-15T00:04:35.714Z,0
2017-08-15T00:05:46.153Z,0
2017-08-15T00:06:56.854Z,0
2017-08-15T00:08:07.494Z,0
2017-08-15T00:09:17.966Z,0
2017-08-15T00:10:28.513Z,0
2017-08-15T00:11:39.082Z,0
2017-08-15T00:12:50.105Z,0
2017-08-15T00:14:00.600Z,0
2017-08-15T00:15:11.091Z,0
2017-08-15T00:16:21.572Z,0
2017-08-15T00:17:32.046Z,0
2017-08-15T00:18:42.781Z,0
2017-08-15T00:19:53.228Z,0
2017-08-15T00:21:03.694Z,0
2017-08-15T00:22:14.171Z,0
2017-08-15T00:23:24.653Z,0
2017-08-15T00:24:35.371Z,0
2017-08-15T00:25:46.145Z,0
2017-08-15T00:26:56.799Z,0
2017-08-15T00:28:06.944Z,0
2017-08-15T00:29:17.390Z,0
2017-08-15T00:30:28.314Z,0
2017-08-15T00:31:38.837Z,0
2017-08-15T00:32:49.305Z,0
2017-08-15T00:34:00.060Z,0
2017-08-15T00:35:10.272Z,0
2017-08-15T00:36:20.990Z,0
2017-08-15T00:37:31.139Z,0
2017-08-15T00:38:41.676Z,0
2017-08-15T00:39:53.110Z,0
2017-08-15T00:41:03.585Z,0
2017-08-15T00:42:13.995Z,0
2017-08-15T00:43:24.485Z,0
2017-08-15T00:44:35.919Z,0
2017-08-15T00:45:46.781Z,0
2017-08-15T00:46:57.244Z,0
2017-08-15T00:48:07.991Z,0
2017-08-15T00:49:18.453Z,0
2017-08-15T00:50:29.124Z,0
2017-08-15T00:51:39.351Z,0
2017-08-15T00:52:49.541Z,0
2017-08-15T00:54:00.250Z,0
2017-08-15T00:55:10.703Z,0
2017-08-15T00:56:21.172Z,0
2017-08-15T00:57:31.628Z,0
2017-08-15T00:58:42.332Z,0
2017-08-15T00:59:52.806Z,0
2017-08-15T01:01:02.989Z,0
2017-08-15T01:02:13.461Z,0
2017-08-15T01:03:23.936Z,0
2017-08-15T01:04:34.416Z,0
2017-08-15T01:05:44.710Z,0
2017-08-15T01:06:55.208Z,0
2017-08-15T01:08:05.335Z,0
2017-08-15T01:09:15.795Z,0
2017-08-15T01:10:26.271Z,0
2017-08-15T01:11:36.986Z,0
2017-08-15T01:12:47.047Z,0
2017-08-15T01:13:57.767Z,0
2017-08-15T01:15:08.347Z,0
2017-08-15T01:16:18.824Z,0
2017-08-15T01:17:29.532Z,0
2017-08-15T01:18:40.003Z,0
2017-08-15T01:19:50.456Z,0
2017-08-15T01:21:00.625Z,0
2017-08-15T01:22:11.079Z,0
2017-08-15T01:23:21.861Z,0
2017-08-15T01:24:32.386Z,0
2017-08-15T01:25:43.218Z,0
2017-08-15T01:26:53.770Z,0
2017-08-15T01:28:04.234Z,0
2017-08-15T01:29:14.936Z,0
2017-08-15T01:30:25.407Z,0
2017-08-15T01:31:35.764Z,0
2017-08-15T01:32:46.244Z,0
2017-08-15T01:33:56.727Z,0
2017-08-15T01:35:07.116Z,0
2017-08-15T01:36:18.552Z,0
2017-08-15T01:37:28.762Z,0
2017-08-15T01:38:39.239Z,0
2017-08-15T01:39:49.799Z,0
2017-08-15T01:41:00.553Z,0
2017-08-15T01:42:11.039Z,0
2017-08-15T01:43:21.523Z,0
2017-08-15T01:44:31.983Z,0
2017-08-15T01:45:42.431Z,0
2017-08-15T01:46:53.249Z,0
2017-08-15T01:48:03.414Z,0
2017-08-15T01:49:13.590Z,0
2017-08-15T01:50:23.759Z,0
2017-08-15T01:51:33.758Z,0
2017-08-15T01:52:44.505Z,0
2017-08-15T01:53:54.980Z,0
2017-08-15T01:55:05.474Z,0
2017-08-15T01:56:15.939Z,0
2017-08-15T01:57:26.497Z,0
2017-08-15T01:58:37.233Z,0
2017-08-15T01:59:47.798Z,0
2017-08-15T02:00:58.281Z,0
2017-08-15T02:02:08.750Z,0
2017-08-15T02:03:19.224Z,0
2017-08-15T02:04:29.929Z,0
2017-08-15T02:05:40.506Z,0
2017-08-15T02:06:50.969Z,0
2017-08-15T02:08:01.427Z,0
2017-08-15T02:09:11.954Z,0
2017-08-15T02:10:22.378Z,0
2017-08-15T02:11:32.933Z,0
2017-08-15T02:12:43.410Z,0
2017-08-15T02:13:53.998Z,0
2017-08-15T02:15:04.556Z,0
2017-08-15T02:16:15.340Z,0
2017-08-15T02:17:25.789Z,0
2017-08-15T02:18:36.247Z,0
2017-08-15T02:19:46.770Z,0
2017-08-15T02:20:57.240Z,0
2017-08-15T02:22:07.932Z,0
2017-08-15T02:23:18.408Z,0
2017-08-15T02:24:28.913Z,0
2017-08-15T02:25:39.642Z,0
2017-08-15T02:26:50.214Z,0
2017-08-15T02:28:00.650Z,0
2017-08-15T02:29:11.322Z,0
2017-08-15T02:30:21.768Z,0
2017-08-15T02:31:31.537Z,0
2017-08-15T02:32:42.020Z,0
2017-08-15T02:33:52.751Z,0
2017-08-15T02:35:03.230Z,0
2017-08-15T02:36:13.222Z,0
2017-08-15T02:37:23.712Z,0
2017-08-15T02:38:33.920Z,0
2017-08-15T02:39:44.307Z,0
2017-08-15T02:40:54.315Z,0
2017-08-15T02:42:04.786Z,0
2017-08-15T02:43:15.290Z,0
2017-08-15T02:44:25.771Z,0
2017-08-15T02:45:36.215Z,0
2017-08-15T02:46:46.679Z,0
2017-08-15T02:47:58.137Z,0
2017-08-15T02:49:08.781Z,0
2017-08-15T02:50:19.237Z,0
2017-08-15T02:51:30.167Z,0
2017-08-15T02:52:40.600Z,0
2017-08-15T02:53:50.791Z,0
2017-08-15T02:55:01.263Z,0
2017-08-15T02:56:11.704Z,0
2017-08-15T02:57:22.417Z,0
2017-08-15T02:58:32.916Z,0
2017-08-15T02:59:43.395Z,0
2017-08-15T03:00:53.859Z,0
2017-08-15T03:02:04.326Z,0
2017-08-15T03:03:14.760Z,0
2017-08-15T03:04:25.222Z,0
2017-08-15T03:05:35.682Z,0
2017-08-15T03:06:46.147Z,0
2017-08-15T03:07:56.704Z,0
2017-08-15T03:09:07.529Z,0
2017-08-15T03:10:17.977Z,0
2017-08-15T03:11:28.558Z,0
2017-08-15T03:12:39.107Z,0
2017-08-15T03:13:49.585Z,0
2017-08-15T03:15:00.304Z,0
2017-08-15T03:16:10.971Z,0
2017-08-15T03:17:21.510Z,0
2017-08-15T03:18:32.946Z,0
2017-08-15T03:19:43.191Z,0
2017-08-15T03:20:53.963Z,0
2017-08-15T03:22:04.439Z,0
2017-08-15T03:23:14.322Z,0
2017-08-15T03:24:24.866Z,0
2017-08-15T03:25:35.337Z,0
2017-08-15T03:26:46.095Z,0
2017-08-15T03:27:56.280Z,0
2017-08-15T03:29:06.768Z,0
2017-08-15T03:30:17.294Z,0
2017-08-15T03:31:27.783Z,0
2017-08-15T03:32:38.204Z,0
2017-08-15T03:33:48.658Z,0
2017-08-15T03:34:59.188Z,0
2017-08-15T03:36:09.655Z,0
2017-08-15T03:37:20.457Z,0
2017-08-15T03:38:31.193Z,0
2017-08-15T03:39:41.675Z,0
2017-08-15T03:40:52.123Z,0
2017-08-15T03:42:02.568Z,0
2017-08-15T03:43:13.059Z,0
2017-08-15T03:44:23.821Z,0
2017-08-15T03:45:34.273Z,0
2017-08-15T03:46:44.747Z,0
2017-08-15T03:47:54.795Z,0
2017-08-15T03:49:05.217Z,0
2017-08-15T03:50:16.006Z,0
2017-08-15T03:51:26.163Z,0
2017-08-15T03:52:36.546Z,0
2017-08-15T03:53:47.099Z,0
2017-08-15T03:54:57.544Z,0
2017-08-15T03:56:07.664Z,0
2017-08-15T03:57:18.133Z,0
2017-08-15T03:58:28.301Z,0
2017-08-15T03:59:38.755Z,0
2017-08-15T04:00:49.216Z,0
2017-08-15T04:01:59.926Z,0
2017-08-15T04:03:10.419Z,0
2017-08-15T04:04:20.453Z,0
2017-08-15T04:05:30.585Z,0
2017-08-15T04:06:40.968Z,0
2017-08-15T04:07:51.705Z,0
2017-08-15T04:09:02.140Z,0
2017-08-15T04:10:12.277Z,5
2017-08-15T04:11:22.109Z,5
2017-08-15T04:12:32.676Z,5
2017-08-15T04:13:43.404Z,5
2017-08-15T04:14:53.887Z,5
2017-08-15T04:16:04.428Z,5
2017-08-15T04:17:14.958Z,5
2017-08-15T04:18:25.420Z,5
2017-08-15T04:19:35.809Z,5
2017-08-15T04:20:46.288Z,5
2017-08-15T04:21:56.794Z,5
2017-08-15T04:23:07.258Z,10
2017-08-15T04:24:17.759Z,10
2017-08-15T04:25:28.449Z,10
2017-08-15T04:26:38.952Z,10
2017-08-15T04:27:49.078Z,10
2017-08-15T04:28:59.576Z,10
2017-08-15T04:30:10.047Z,10
2017-08-15T04:31:20.466Z,10
2017-08-15T04:32:30.967Z,10
2017-08-15T04:33:41.782Z,10
2017-08-15T04:34:52.303Z,10
2017-08-15T04:36:02.868Z,10
2017-08-15T04:37:13.581Z,10
2017-08-15T04:38:24.021Z,15
2017-08-15T04:39:34.489Z,15
2017-08-15T04:40:44.964Z,15
2017-08-15T04:41:56.530Z,15
2017-08-15T04:43:07.282Z,15
2017-08-15T04:44:17.746Z,15
2017-08-15T04:45:28.206Z,20
2017-08-15T04:46:38.805Z,20
2017-08-15T04:47:49.022Z,20
2017-08-15T04:48:59.405Z,15
2017-08-15T04:50:10.015Z,15
2017-08-15T04:51:20.484Z,15
2017-08-15T04:52:31.032Z,15
2017-08-15T04:53:41.566Z,15
2017-08-15T04:54:52.299Z,20
2017-08-15T04:56:02.740Z,20
2017-08-15T04:57:13.250Z,25
2017-08-15T04:58:23.756Z,25
2017-08-15T04:59:34.332Z,20
2017-08-15T05:00:45.050Z,20
2017-08-15T05:01:55.603Z,20
2017-08-15T05:03:06.078Z,20
2017-08-15T05:04:16.223Z,20
2017-08-15T05:05:26.747Z,20
2017-08-15T05:06:37.512Z,20
2017-08-15T05:07:48.007Z,20
2017-08-15T05:08:58.472Z,25
2017-08-15T05:10:09.051Z,25
2017-08-15T05:11:19.548Z,30
2017-08-15T05:12:30.783Z,35
2017-08-15T05:13:41.278Z,40
2017-08-15T05:14:51.754Z,45
2017-08-15T05:16:02.198Z,50
2017-08-15T05:17:12.895Z,55
2017-08-15T05:18:23.608Z,65
2017-08-15T05:19:34.060Z,70
2017-08-15T05:20:44.240Z,75
2017-08-15T05:21:54.392Z,85
2017-08-15T05:23:04.858Z,90
2017-08-15T05:24:15.655Z,95
2017-08-15T05:25:26.105Z,100
2017-08-15T05:26:36.543Z,105
2017-08-15T05:27:47.031Z,105
2017-08-15T05:28:57.538Z,105
2017-08-15T05:30:07.974Z,105
2017-08-15T05:31:18.456Z,110
2017-08-15T05:32:28.935Z,110
2017-08-15T05:33:39.080Z,115
2017-08-15T05:34:49.654Z,125
2017-08-15T05:36:00.638Z,135
2017-08-15T05:37:10.977Z,145
2017-08-15T05:38:21.467Z,155
2017-08-15T05:39:31.961Z,170
2017-08-15T05:40:42.429Z,180
2017-08-15T05:41:53.141Z,180
2017-08-15T05:43:03.329Z,190
2017-08-15T05:44:13.497Z,195
2017-08-15T05:45:23.969Z,195
2017-08-15T05:46:34.008Z,200
2017-08-15T05:47:44.720Z,220
2017-08-15T05:48:55.224Z,225
2017-08-15T05:50:05.666Z,230
2017-08-15T05:51:16.178Z,240
2017-08-15T05:52:26.630Z,260
2017-08-15T05:53:37.391Z,280
2017-08-15T05:54:47.923Z,280
2017-08-15T05:55:58.521Z,270
2017-08-15T05:57:08.974Z,265
2017-08-15T05:58:19.161Z,255
2017-08-15T05:59:29.863Z,250
2017-08-15T06:00:40.368Z,255
2017-08-15T06:01:50.847Z,260
2017-08-15T06:03:00.699Z,260
2017-08-15T06:04:11.176Z,260
2017-08-15T06:05:21.925Z,265
2017-08-15T06:06:32.485Z,265
2017-08-15T06:07:43.222Z,265
2017-08-15T06:08:53.682Z,270
2017-08-15T06:10:04.254Z,265
2017-08-15T06:11:14.954Z,260
2017-08-15T06:12:25.425Z,260
2017-08-15T06:13:35.874Z,255
2017-08-15T06:14:46.046Z,245
2017-08-15T06:15:56.751Z,255
2017-08-15T06:17:07.478Z,240
2017-08-15T06:18:17.624Z,235
2017-08-15T06:19:27.804Z,220
2017-08-15T06:20:38.013Z,225
2017-08-15T06:21:48.490Z,220
2017-08-15T06:22:59.201Z,220
2017-08-15T06:24:09.677Z,210
2017-08-15T06:25:19.713Z,215
2017-08-15T06:26:30.262Z,215
2017-08-15T06:27:40.732Z,205
2017-08-15T06:28:51.477Z,210
2017-08-15T06:30:01.954Z,215
2017-08-15T06:31:12.462Z,205
2017-08-15T06:32:22.959Z,215
2017-08-15T06:33:33.103Z,210
2017-08-15T06:34:43.370Z,210
2017-08-15T06:35:53.812Z,220
2017-08-15T06:37:04.036Z,220
2017-08-15T06:38:14.522Z,215
2017-08-15T06:39:25.017Z,235
2017-08-15T06:40:35.766Z,240
2017-08-15T06:41:46.259Z,240
2017-08-15T06:42:56.737Z,245
2017-08-15T06:44:07.212Z,250
2017-08-15T06:45:17.660Z,255
2017-08-15T06:46:28.360Z,260
2017-08-15T06:47:38.881Z,260
2017-08-15T06:48:49.336Z,265
2017-08-15T06:50:31.628Z,270
2017-08-15T06:51:41.757Z,280
2017-08-15T06:52:52.222Z,285
2017-08-15T06:54:02.705Z,290
2017-08-15T06:55:12.857Z,290
2017-08-15T06:56:22.900Z,295
2017-08-15T06:57:33.601Z,300
2017-08-15T06:58:44.146Z,310
2017-08-15T06:59:54.606Z,315
2017-08-15T07:01:05.086Z,320
2017-08-15T07:02:15.541Z,320
2017-08-15T07:03:26.239Z,325
2017-08-15T07:04:36.933Z,325
2017-08-15T07:05:47.417Z,325
2017-08-15T07:06:57.891Z,325
2017-08-15T07:08:08.448Z,325
2017-08-15T07:09:19.903Z,325
2017-08-15T07:10:30.476Z,325
2017-08-15T07:11:40.622Z,330
2017-08-15T07:12:51.099Z,330
2017-08-15T07:14:01.554Z,335
2017-08-15T07:15:12.321Z,340
2017-08-15T07:16:22.791Z,340
2017-08-15T07:17:32.967Z,350
2017-08-15T07:18:43.157Z,345
2017-08-15T07:19:53.330Z,345
2017-08-15T07:21:03.741Z,350
2017-08-15T07:22:14.204Z,350
2017-08-15T07:23:24.650Z,350
2017-08-15T07:24:35.106Z,350
2017-08-15T07:25:45.811Z,345
2017-08-15T07:26:56.613Z,345
2017-08-15T07:28:07.094Z,335
2017-08-15T07:29:17.321Z,325
2017-08-15T07:30:27.986Z,325
2017-08-15T07:31:38.045Z,320
2017-08-15T07:32:48.317Z,325
2017-08-15T07:33:58.788Z,330
2017-08-15T07:35:09.325Z,345
2017-08-15T07:36:19.081Z,350
2017-08-15T07:37:30.518Z,355
2017-08-15T07:38:40.982Z,360
2017-08-15T07:39:50.973Z,370
2017-08-15T07:41:01.132Z,385
2017-08-15T07:42:11.704Z,390
2017-08-15T07:43:21.616Z,400
2017-08-15T07:44:31.743Z,410
2017-08-15T07:45:42.498Z,415
2017-08-15T07:46:52.352Z,410
2017-08-15T07:48:03.047Z,405
2017-08-15T07:49:13.530Z,400
2017-08-15T07:50:24.246Z,415
2017-08-15T07:51:34.691Z,430
2017-08-15T07:52:45.278Z,455
2017-08-15T07:53:55.748Z,475
2017-08-15T07:55:05.908Z,495
2017-08-15T07:56:16.408Z,510
2017-08-15T07:57:26.962Z,535
2017-08-15T07:58:37.397Z,525
2017-08-15T07:59:47.892Z,495
2017-08-15T08:00:57.903Z,400
2017-08-15T08:02:08.332Z,420
2017-08-15T08:03:18.817Z,415
2017-08-15T08:04:29.290Z,430
2017-08-15T08:05:39.748Z,440
2017-08-15T08:06:49.959Z,455
2017-08-15T08:08:00.650Z,480
2017-08-15T08:09:10.793Z,495
2017-08-15T08:10:21.314Z,500
2017-08-15T08:11:31.814Z,500
2017-08-15T08:12:42.396Z,440
2017-08-15T08:13:53.216Z,430
2017-08-15T08:15:03.397Z,415
2017-08-15T08:16:14.151Z,440
2017-08-15T08:17:24.634Z,450
2017-08-15T08:18:35.085Z,440
2017-08-15T08:19:45.798Z,445
2017-08-15T08:20:56.331Z,445
2017-08-15T08:22:06.792Z,460
2017-08-15T08:23:16.939Z,470
2017-08-15T08:24:27.488Z,485
2017-08-15T08:25:38.229Z,490
2017-08-15T08:26:48.687Z,505
2017-08-15T08:27:59.155Z,530
2017-08-15T08:29:09.854Z,535
2017-08-15T08:30:20.319Z,545
2017-08-15T08:31:30.718Z,525
2017-08-15T08:32:41.183Z,620
2017-08-15T08:33:51.652Z,690
2017-08-15T08:35:02.134Z,645
2017-08-15T08:36:12.629Z,675
2017-08-15T08:37:23.092Z,680
2017-08-15T08:38:33.600Z,680
2017-08-15T08:39:43.763Z,710
2017-08-15T08:40:54.219Z,720
2017-08-15T08:42:04.705Z,740
2017-08-15T08:43:15.484Z,1145
2017-08-15T08:44:26.237Z,1935
2017-08-15T08:45:36.750Z,2120
2017-08-15T08:46:47.236Z,2285
2017-08-15T08:47:57.728Z,2405
2017-08-15T08:49:08.127Z,2500
2017-08-15T08:50:18.177Z,2550
2017-08-15T08:51:28.650Z,2340
2017-08-15T08:52:39.115Z,2965
2017-08-15T08:53:49.598Z,2725
2017-08-15T08:55:00.337Z,2315
2017-08-15T08:56:10.606Z,2180
2017-08-15T08:57:21.106Z,2215
2017-08-15T08:58:31.341Z,2260
2017-08-15T08:59:41.888Z,2280
2017-08-15T09:00:52.698Z,2430
2017-08-15T09:02:04.129Z,2625
2017-08-15T09:03:14.631Z,2775
2017-08-15T09:04:24.781Z,2935
2017-08-15T09:05:35.410Z,2975
2017-08-15T09:06:46.178Z,2910
2017-08-15T09:07:56.660Z,2855
2017-08-15T09:09:06.858Z,2800
2017-08-15T09:10:17.342Z,2755
2017-08-15T09:11:27.837Z,2745
2017-08-15T09:12:38.292Z,2795
2017-08-15T09:13:48.770Z,2905
2017-08-15T09:14:59.399Z,2945
2017-08-15T09:16:09.567Z,2990
2017-08-15T09:17:19.894Z,3045
2017-08-15T09:18:30.614Z,3015
2017-08-15T09:19:41.469Z,2890
2017-08-15T09:20:51.969Z,2620
2017-08-15T09:22:02.508Z,2590
2017-08-15T09:23:12.990Z,2605
2017-08-15T09:24:23.735Z,2735
2017-08-15T09:25:34.208Z,1905
2017-08-15T09:26:44.398Z,2790
2017-08-15T09:27:56.067Z,2905
2017-08-15T09:29:06.718Z,2975
2017-08-15T09:30:17.013Z,3060
2017-08-15T09:31:27.519Z,3045
2017-08-15T09:32:38.202Z,2980
2017-08-15T09:33:48.381Z,3000
2017-08-15T09:34:58.962Z,3050
2017-08-15T09:36:09.691Z,3070
2017-08-15T09:37:20.198Z,3095
2017-08-15T09:38:30.405Z,3090
2017-08-15T09:39:40.908Z,3080
2017-08-15T09:40:51.421Z,3045
2017-08-15T09:42:02.062Z,2945
2017-08-15T09:43:11.805Z,2895
2017-08-15T09:44:22.297Z,2900
2017-08-15T09:45:32.829Z,2885
2017-08-15T09:46:43.450Z,2920
2017-08-15T09:47:54.193Z,3045
2017-08-15T09:49:04.685Z,3105
2017-08-15T09:50:15.173Z,2735
2017-08-15T09:51:25.762Z,1830
2017-08-15T09:52:36.264Z,1510
2017-08-15T09:53:46.993Z,2340
2017-08-15T09:54:57.577Z,2515
2017-08-15T09:56:08.073Z,3000
2017-08-15T09:57:18.592Z,3135
2017-08-15T09:58:29.473Z,3220
2017-08-15T09:59:40.486Z,3275
2017-08-15T10:00:50.998Z,3225
2017-08-15T10:02:01.492Z,3190
2017-08-15T10:03:11.613Z,3090
2017-08-15T10:04:22.323Z,3045
2017-08-15T10:05:33.041Z,3035
2017-08-15T10:06:43.083Z,3055
2017-08-15T10:07:53.272Z,3060
2017-08-15T10:09:04.735Z,3075
2017-08-15T10:10:15.284Z,3060
2017-08-15T10:11:26.050Z,3160
2017-08-15T10:12:37.573Z,3330
2017-08-15T10:13:47.614Z,3385
2017-08-15T10:15:03.543Z,3390
2017-08-15T10:16:13.753Z,3445
2017-08-15T10:17:24.193Z,3435
2017-08-15T10:18:34.069Z,3495
2017-08-15T10:19:44.554Z,3765
2017-08-15T10:20:54.757Z,4140
2017-08-15T10:22:05.467Z,4490
2017-08-15T10:23:15.761Z,4565
2017-08-15T10:24:26.447Z,4525
2017-08-15T10:25:37.174Z,4275
2017-08-15T10:26:47.735Z,4015
2017-08-15T10:27:58.377Z,3800
2017-08-15T10:29:09.122Z,3690
2017-08-15T10:30:19.774Z,3740
2017-08-15T10:31:30.259Z,3835
2017-08-15T10:32:40.446Z,3905
2017-08-15T10:33:50.606Z,3865
2017-08-15T10:35:01.353Z,3825
2017-08-15T10:36:11.867Z,3735
2017-08-15T10:37:22.383Z,3685
2017-08-15T10:38:32.892Z,3610
2017-08-15T10:39:43.592Z,3485
2017-08-15T10:40:54.341Z,3535
2017-08-15T10:42:05.031Z,3805
2017-08-15T10:43:15.587Z,4160
2017-08-15T10:44:26.085Z,4220
2017-08-15T10:45:36.735Z,4165
2017-08-15T10:46:47.476Z,4060
2017-08-15T10:47:58.056Z,4045
2017-08-15T10:49:08.588Z,4000
2017-08-15T10:50:19.060Z,3930
2017-08-15T10:51:29.590Z,3895
2017-08-15T10:52:40.014Z,3915
2017-08-15T10:53:50.568Z,4140
2017-08-15T10:55:01.072Z,4230
2017-08-15T10:56:11.401Z,4210
2017-08-15T10:57:21.885Z,4170
2017-08-15T10:58:32.624Z,4080
2017-08-15T10:59:42.786Z,4065
2017-08-15T11:00:53.288Z,4230
2017-08-15T11:02:03.762Z,4355
2017-08-15T11:03:14.278Z,4355
2017-08-15T11:04:25.043Z,4175
2017-08-15T11:05:35.267Z,3885
2017-08-15T11:06:45.826Z,3800
2017-08-15T11:07:56.313Z,3720
2017-08-15T11:09:06.787Z,3760
2017-08-15T11:10:17.613Z,4060
2017-08-15T11:11:27.976Z,4085
2017-08-15T11:12:38.160Z,4190
2017-08-15T11:13:48.692Z,4090
2017-08-15T11:14:59.174Z,4035
2017-08-15T11:16:09.955Z,4035
2017-08-15T11:17:20.488Z,3905
2017-08-15T11:18:31.268Z,4000
2017-08-15T11:19:41.791Z,4045
2017-08-15T11:20:52.279Z,4025
2017-08-15T11:22:03.064Z,3900
2017-08-15T11:23:13.600Z,3755
2017-08-15T11:24:24.090Z,3665
2017-08-15T11:25:34.553Z,3725
2017-08-15T11:26:45.173Z,3900
2017-08-15T11:27:56.000Z,4030
2017-08-15T11:29:06.550Z,4080
2017-08-15T11:30:16.734Z,4150
2017-08-15T11:31:27.265Z,4095
2017-08-15T11:32:37.756Z,3930
2017-08-15T11:33:48.481Z,3415
2017-08-15T11:34:59.023Z,3165
2017-08-15T11:36:09.244Z,3245
2017-08-15T11:37:19.742Z,3260
2017-08-15T11:38:30.244Z,3380
2017-08-15T11:39:41.000Z,3610
2017-08-15T11:40:51.482Z,3975
2017-08-15T11:42:01.982Z,4080
2017-08-15T11:43:12.515Z,4135
2017-08-15T11:44:23.025Z,3885
2017-08-15T11:45:33.846Z,3565
2017-08-15T11:46:44.335Z,3380
2017-08-15T11:47:54.810Z,3225
2017-08-15T11:49:05.310Z,3120
2017-08-15T11:50:15.810Z,3035
2017-08-15T11:51:26.260Z,3000
2017-08-15T11:52:36.996Z,2965
2017-08-15T11:53:48.442Z,3465
2017-08-15T11:54:58.931Z,3255
2017-08-15T11:56:09.235Z,2960
2017-08-15T11:57:20.198Z,3140
2017-08-15T11:58:30.707Z,2995
2017-08-15T11:59:41.205Z,3040
2017-08-15T12:00:51.719Z,2980
2017-08-15T12:02:02.206Z,2910
2017-08-15T12:03:12.909Z,3120
2017-08-15T12:04:23.395Z,3375
2017-08-15T12:05:33.521Z,3530
2017-08-15T12:06:44.026Z,3660
2017-08-15T12:07:54.177Z,3685
2017-08-15T12:09:04.956Z,3445
2017-08-15T12:10:15.477Z,3230
2017-08-15T12:11:25.740Z,2920
2017-08-15T12:12:36.267Z,2590
2017-08-15T12:13:46.467Z,2230
2017-08-15T12:14:56.942Z,2480
2017-08-15T12:16:07.097Z,2545
2017-08-15T12:17:17.283Z,2480
2017-08-15T12:18:27.029Z,2325
2017-08-15T12:19:37.194Z,2510
2017-08-15T12:20:47.923Z,2210
2017-08-15T12:21:58.382Z,2295
2017-08-15T12:23:08.596Z,2095
2017-08-15T12:24:19.112Z,2110
2017-08-15T12:25:29.634Z,1945
2017-08-15T12:26:40.482Z,2250
2017-08-15T12:27:51.012Z,2160
2017-08-15T12:29:01.406Z,2425
2017-08-15T12:30:12.213Z,2000
2017-08-15T12:31:22.699Z,2215
2017-08-15T12:32:33.734Z,2205
2017-08-15T12:33:44.229Z,2180
2017-08-15T12:34:54.703Z,2170
2017-08-15T12:36:05.208Z,2050
2017-08-15T12:37:15.720Z,1925
2017-08-15T12:38:26.547Z,1235
2017-08-15T12:39:37.050Z,2325
2017-08-15T12:40:47.562Z,2600
2017-08-15T12:41:58.237Z,2625
2017-08-15T12:43:08.726Z,2455
2017-08-15T12:44:19.704Z,2350
2017-08-15T12:45:30.205Z,2235
2017-08-15T12:46:40.697Z,1885
2017-08-15T12:47:51.193Z,1875
2017-08-15T12:49:01.356Z,1825
2017-08-15T12:50:12.215Z,1775
2017-08-15T12:51:23.725Z,1510
2017-08-15T12:52:34.197Z,1460
2017-08-15T12:53:44.686Z,1400
2017-08-15T12:54:55.197Z,945
2017-08-15T12:56:06.909Z,1000
2017-08-15T12:57:17.464Z,1990
2017-08-15T12:58:27.955Z,2260
2017-08-15T12:59:38.427Z,1905
2017-08-15T13:00:48.918Z,1510
2017-08-15T13:01:59.867Z,1490
2017-08-15T13:03:10.343Z,1170
2017-08-15T13:04:20.805Z,1145
2017-08-15T13:05:31.328Z,1210
2017-08-15T13:06:41.817Z,1225
2017-08-15T13:07:52.563Z,1275
2017-08-15T13:09:03.065Z,1370
2017-08-15T13:10:13.559Z,1530
2017-08-15T13:11:23.731Z,1745
2017-08-15T13:12:33.994Z,1950
2017-08-15T13:13:44.711Z,2065
2017-08-15T13:14:54.912Z,2035
2017-08-15T13:16:05.400Z,1855
2017-08-15T13:17:16.119Z,1885
2017-08-15T13:18:26.592Z,2015
2017-08-15T13:19:37.329Z,1770
2017-08-15T13:20:47.490Z,1400
2017-08-15T13:21:58.250Z,1380
2017-08-15T13:23:08.791Z,1380
2017-08-15T13:24:19.516Z,1395
2017-08-15T13:25:30.261Z,1780
2017-08-15T13:26:40.889Z,2490
2017-08-15T13:27:51.040Z,2285
2017-08-15T13:29:01.135Z,2035
2017-08-15T13:30:11.886Z,1540
2017-08-15T13:31:22.031Z,1675
2017-08-15T13:32:32.501Z,2020
2017-08-15T13:33:43.017Z,2000
2017-08-15T13:34:53.530Z,1980
2017-08-15T13:36:05.200Z,2315
2017-08-15T13:37:15.534Z,2330
2017-08-15T13:38:26.060Z,2360
2017-08-15T13:39:36.562Z,2420
2017-08-15T13:40:47.064Z,820
2017-08-15T13:41:57.235Z,1545
2017-08-15T13:43:07.966Z,1320
2017-08-15T13:44:18.747Z,1070
2017-08-15T13:45:28.906Z,805
2017-08-15T13:46:39.414Z,1205
2017-08-15T13:47:49.940Z,1015
2017-08-15T13:49:00.664Z,800
2017-08-15T13:50:11.366Z,880
2017-08-15T13:51:21.527Z,635
2017-08-15T13:52:32.067Z,630
2017-08-15T13:53:42.570Z,610
2017-08-15T13:54:53.299Z,560
2017-08-15T13:56:03.789Z,560
2017-08-15T13:57:14.291Z,555
2017-08-15T13:58:24.762Z,580
2017-08-15T13:59:34.823Z,825
2017-08-15T14:00:45.554Z,1285
2017-08-15T14:01:56.102Z,2140
2017-08-15T14:03:06.315Z,2700
2017-08-15T14:04:16.874Z,2825
2017-08-15T14:05:26.761Z,2635
2017-08-15T14:06:37.517Z,2220
2017-08-15T14:07:48.036Z,2430
2017-08-15T14:08:58.553Z,2485
2017-08-15T14:10:09.011Z,2205
2017-08-15T14:11:19.567Z,2210
2017-08-15T14:12:30.347Z,2075
2017-08-15T14:13:40.542Z,1955
2017-08-15T14:14:50.600Z,1860
2017-08-15T14:16:01.153Z,1975
2017-08-15T14:17:11.632Z,1900
2017-08-15T14:18:22.400Z,2235
2017-08-15T14:19:32.886Z,2170
2017-08-15T14:20:43.373Z,1665
2017-08-15T14:21:53.990Z,1715
2017-08-15T14:23:03.905Z,2105
2017-08-15T14:24:14.649Z,1270
2017-08-15T14:25:25.185Z,1755
2017-08-15T14:26:35.681Z,1800
2017-08-15T14:27:46.151Z,1755
2017-08-15T14:28:56.657Z,2060
2017-08-15T14:30:07.572Z,1960
2017-08-15T14:31:18.083Z,1820
2017-08-15T14:32:28.577Z,1315
2017-08-15T14:33:39.078Z,1725
2017-08-15T14:34:49.590Z,1565
2017-08-15T14:36:00.038Z,1675
2017-08-15T14:37:10.568Z,1530
2017-08-15T14:38:21.147Z,1665
2017-08-15T14:39:31.657Z,1625
2017-08-15T14:40:42.152Z,1610
2017-08-15T14:41:52.888Z,1640
2017-08-15T14:43:03.096Z,1730
2017-08-15T14:44:13.601Z,1850
2017-08-15T14:45:23.709Z,1740
2017-08-15T14:46:34.203Z,1695
2017-08-15T14:47:44.973Z,1575
2017-08-15T14:48:55.179Z,1480
2017-08-15T14:50:05.652Z,1360
2017-08-15T14:51:15.723Z,1290
2017-08-15T14:52:26.199Z,1260
2017-08-15T14:53:36.964Z,990
2017-08-15T14:54:47.148Z,1140
2017-08-15T14:55:57.309Z,1280
2017-08-15T14:57:07.869Z,780
2017-08-15T14:58:18.360Z,575
2017-08-15T14:59:29.105Z,535
2017-08-15T15:00:39.633Z,530
2017-08-15T15:01:50.191Z,550
2017-08-15T15:03:00.698Z,545
2017-08-15T15:04:11.201Z,565
2017-08-15T15:05:21.979Z,625
2017-08-15T15:06:32.480Z,805
2017-08-15T15:07:42.998Z,965
2017-08-15T15:08:53.513Z,990
2017-08-15T15:10:04.024Z,975
2017-08-15T15:11:14.454Z,620
2017-08-15T15:12:24.488Z,570
2017-08-15T15:13:35.003Z,515
2017-08-15T15:14:45.061Z,470
2017-08-15T15:15:55.558Z,440
2017-08-15T15:17:05.998Z,435
2017-08-15T15:18:16.465Z,450
2017-08-15T15:19:27.297Z,510
2017-08-15T15:20:37.925Z,535
2017-08-15T15:21:48.418Z,570
2017-08-15T15:22:59.199Z,1205
2017-08-15T15:24:09.706Z,1190
2017-08-15T15:25:19.667Z,725
2017-08-15T15:26:29.949Z,725
2017-08-15T15:27:40.500Z,660
2017-08-15T15:28:51.289Z,625
2017-08-15T15:30:01.818Z,615
2017-08-15T15:31:12.323Z,795
2017-08-15T15:32:22.861Z,630
2017-08-15T15:33:33.372Z,900
2017-08-15T15:34:44.274Z,820
2017-08-15T15:35:54.531Z,655
2017-08-15T15:37:06.016Z,605
2017-08-15T15:38:16.496Z,585
2017-08-15T15:39:26.677Z,830
2017-08-15T15:40:37.688Z,565
2017-08-15T15:41:48.360Z,575
2017-08-15T15:42:58.865Z,525
2017-08-15T15:44:09.389Z,480
2017-08-15T15:45:19.925Z,450
2017-08-15T15:46:31.145Z,410
2017-08-15T15:47:41.808Z,395
2017-08-15T15:48:52.358Z,370
2017-08-15T15:50:02.868Z,340
2017-08-15T15:51:13.487Z,315
2017-08-15T15:52:24.463Z,290
2017-08-15T15:53:35.966Z,280
2017-08-15T15:54:46.475Z,270
2017-08-15T15:55:57.030Z,270
2017-08-15T15:57:07.543Z,275
2017-08-15T15:58:18.291Z,255
2017-08-15T15:59:28.834Z,240
2017-08-15T16:00:39.054Z,225
2017-08-15T16:01:49.768Z,205
2017-08-15T16:03:00.317Z,185
2017-08-15T16:04:11.039Z,175
2017-08-15T16:05:21.582Z,170
2017-08-15T16:06:32.130Z,165
2017-08-15T16:07:42.774Z,170
2017-08-15T16:08:53.277Z,160
2017-08-15T16:10:04.058Z,155
2017-08-15T16:11:14.236Z,155
2017-08-15T16:12:24.455Z,160
2017-08-15T16:13:34.975Z,160
2017-08-15T16:14:45.708Z,155
2017-08-15T16:15:55.993Z,145
2017-08-15T16:17:06.534Z,135
2017-08-15T16:18:17.046Z,130
2017-08-15T16:19:27.577Z,130